Time;durP1;ratioP1;P1;durP2;ratioP2;P2;SDS_P1;SDS_P2;PMS_P1;PMS_P2;Temp;Humidity;BMP_temperature;BMP_pressure;BME280_temperature;BME280_humidity;BME280_pressure;Samples;Min_cycle;Max_cycle;Signal;HPM_P1;HPM_P2
2022/10/21 00:00:33;;;;;;;9.18;4.10;;;;;;;;;;5016548;28;20145;-65
2022/10/21 00:02:59;;;;;;;11.20;4.45;;;;;;;;;;5018893;28;20077;-65
2022/10/21 00:05:29;;;;;;;10.27;4.78;;;;;;;;;;4999866;28;20054;-64
2022/10/21 00:07:57;;;;;;;13.77;5.38;;;;;;;;;;5005784;28;20046;-65
2022/10/21 00:10:23;;;;;;;13.13;5.20;;;;;;;;;;5000377;28;20092;-64
2022/10/21 00:12:50;;;;;;;14.55;4.50;;;;;;;;;;5004426;28;20078;-64
2022/10/21 00:15:16;;;;;;;7.82;4.03;;;;;;;;;;4998427;28;20137;-65
2022/10/21 00:17:44;;;;;;;12.23;4.93;;;;;;;;;;5002011;28;20054;-65
2022/10/21 00:20:13;;;;;;;11.55;4.60;;;;;;;;;;4996355;28;20065;-64
2022/10/21 00:22:41;;;;;;;14.35;5.25;;;;;;;;;;4985808;28;20062;-63
2022/10/21 00:25:08;;;;;;;11.90;5.20;;;;;;;;;;4998190;28;20054;-66
2022/10/21 00:27:35;;;;;;;10.45;4.65;;;;;;;;;;4985333;28;20055;-66
2022/10/21 00:30:02;;;;;;;11.68;4.68;;;;;;;;;;5001194;28;20054;-64
2022/10/21 00:32:28;;;;;;;10.57;4.80;;;;;;;;;;5007820;28;20131;-63
2022/10/21 00:34:55;;;;;;;12.45;4.75;;;;;;;;;;5004751;28;20074;-64
2022/10/21 00:37:21;;;;;;;13.13;4.43;;;;;;;;;;5013131;28;20088;-63
2022/10/21 00:39:49;;;;;;;13.70;5.40;;;;;;;;;;5015998;28;20116;-64
2022/10/21 00:42:17;;;;;;;8.77;4.38;;;;;;;;;;4980161;28;20108;-63
2022/10/21 00:44:59;;;;;;;10.88;5.03;;;;;;;;;;5001536;28;20062;-64
2022/10/21 00:47:26;;;;;;;12.38;4.60;;;;;;;;;;4975489;28;20057;-65
2022/10/21 00:49:56;;;;;;;15.73;5.38;;;;;;;;;;4985221;28;20054;-65
2022/10/21 00:52:23;;;;;;;7.65;3.90;;;;;;;;;;5007380;28;20073;-63
2022/10/21 00:54:53;;;;;;;15.02;5.15;;;;;;;;;;5005299;28;20049;-63
2022/10/21 00:57:20;;;;;;;15.48;5.30;;;;;;;;;;4998851;28;20073;-63
2022/10/21 00:59:49;;;;;;;14.40;4.93;;;;;;;;;;5021554;28;20054;-63
2022/10/21 01:02:15;;;;;;;15.52;5.65;;;;;;;;;;5015447;28;20050;-64
2022/10/21 01:04:42;;;;;;;10.82;4.70;;;;;;;;;;5021253;28;20057;-64
2022/10/21 01:07:10;;;;;;;9.50;4.20;;;;;;;;;;4999452;28;20061;-62
2022/10/21 01:09:37;;;;;;;10.65;4.38;;;;;;;;;;5021328;28;20111;-63
2022/10/21 01:12:10;;;;;;;13.02;5.45;;;;;;;;;;5015835;28;20111;-63
2022/10/21 01:14:52;;;;;;;15.40;6.03;;;;;;;;;;5005433;28;20057;-64
2022/10/21 01:17:23;;;;;;;14.00;5.70;;;;;;;;;;5015537;28;20056;-63
2022/10/21 01:20:08;;;;;;;12.35;5.50;;;;;;;;;;5021588;28;20058;-63
2022/10/21 01:22:47;;;;;;;14.57;6.03;;;;;;;;;;5014087;28;20101;-63
2022/10/21 01:25:13;;;;;;;;;;;;;;;;;;4984522;28;20129;-65
2022/10/21 01:27:47;;;;;;;9.45;4.20;;;;;;;;;;4996241;28;19922;-65
2022/10/21 01:30:32;;;;;;;9.77;4.38;;;;;;;;;;5019379;28;20046;-64
2022/10/21 01:33:07;;;;;;;9.38;4.80;;;;;;;;;;4980118;28;20113;-63
2022/10/21 01:35:37;;;;;;;10.73;5.15;;;;;;;;;;4985303;28;20054;-63
2022/10/21 01:38:08;;;;;;;11.55;4.90;;;;;;;;;;4972425;28;20057;-66
2022/10/21 01:40:36;;;;;;;15.43;5.50;;;;;;;;;;4987790;28;20058;-64
2022/10/21 01:43:07;;;;;;;12.13;5.13;;;;;;;;;;5005295;28;20065;-65
2022/10/21 01:45:36;;;;;;;16.35;6.20;;;;;;;;;;5004000;28;20046;-66
2022/10/21 01:48:05;;;;;;;11.43;5.32;;;;;;;;;;5004697;28;20108;-64
2022/10/21 01:50:36;;;;;;;12.18;5.22;;;;;;;;;;4999655;28;20082;-63
2022/10/21 01:53:05;;;;;;;9.45;4.32;;;;;;;;;;5005153;28;20113;-64
2022/10/21 01:55:32;;;;;;;10.13;4.25;;;;;;;;;;4999640;28;20189;-65
2022/10/21 01:58:02;;;;;;;11.80;5.60;;;;;;;;;;5004489;28;20058;-66
2022/10/21 02:00:29;;;;;;;10.00;4.75;;;;;;;;;;4996704;28;20238;-64
2022/10/21 02:02:56;;;;;;;9.35;4.00;;;;;;;;;;5024032;28;20137;-63
2022/10/21 02:05:23;;;;;;;13.77;5.22;;;;;;;;;;5018396;28;20091;-63
2022/10/21 02:07:52;;;;;;;11.13;4.27;;;;;;;;;;4994398;28;20058;-65
2022/10/21 02:10:18;;;;;;;9.30;3.70;;;;;;;;;;5012910;28;20053;-65
2022/10/21 02:12:47;;;;;;;10.10;4.35;;;;;;;;;;5007785;28;20054;-63
2022/10/21 02:15:14;;;;;;;;;;;;;;;;;;5002670;28;20100;-64
2022/10/21 02:17:43;;;;;;;13.45;5.30;;;;;;;;;;5023852;28;19925;-65
2022/10/21 02:20:11;;;;;;;10.10;4.18;;;;;;;;;;5002444;28;20053;-63
2022/10/21 02:22:38;;;;;;;13.93;6.00;;;;;;;;;;4992561;28;20141;-63
2022/10/21 02:25:08;;;;;;;11.30;5.25;;;;;;;;;;5015060;28;20073;-63
2022/10/21 02:27:35;;;;;;;11.75;5.60;;;;;;;;;;5007235;28;20050;-63
2022/10/21 02:30:02;;;;;;;12.15;5.57;;;;;;;;;;5018987;28;20050;-63
2022/10/21 02:32:31;;;;;;;10.00;4.68;;;;;;;;;;5024103;28;20046;-65
2022/10/21 02:35:05;;;;;;;9.70;3.90;;;;;;;;;;5016815;28;20053;-64
2022/10/21 02:37:34;;;;;;;7.55;3.58;;;;;;;;;;5006055;28;20062;-63
2022/10/21 02:40:03;;;;;;;9.82;3.90;;;;;;;;;;5023522;28;20060;-64
2022/10/21 02:42:34;;;;;;;8.75;4.10;;;;;;;;;;5016921;28;20053;-64
2022/10/21 02:45:01;;;;;;;10.00;4.43;;;;;;;;;;4988027;28;20050;-63
2022/10/21 02:47:28;;;;;;;11.82;5.07;;;;;;;;;;4997119;28;20054;-64
2022/10/21 02:49:54;;;;;;;9.15;4.30;;;;;;;;;;4987463;28;20133;-65
2022/10/21 02:52:21;;;;;;;14.07;5.70;;;;;;;;;;4970020;28;20051;-64
2022/10/21 02:54:48;;;;;;;14.25;5.63;;;;;;;;;;4987642;28;20046;-64
2022/10/21 02:57:14;;;;;;;13.45;6.00;;;;;;;;;;4992688;28;20050;-63
2022/10/21 02:59:42;;;;;;;9.80;4.10;;;;;;;;;;5023683;28;20060;-64
2022/10/21 03:02:09;;;;;;;11.47;4.37;;;;;;;;;;5017816;28;20059;-63
2022/10/21 03:04:35;;;;;;;9.10;4.57;;;;;;;;;;5023606;28;20384;-63
2022/10/21 03:07:02;;;;;;;8.38;3.85;;;;;;;;;;5017414;28;20061;-63
2022/10/21 03:09:28;;;;;;;13.63;5.40;;;;;;;;;;5006806;28;20065;-63
2022/10/21 03:11:55;;;;;;;8.65;3.88;;;;;;;;;;5016801;28;20057;-65
2022/10/21 03:14:21;;;;;;;15.73;5.70;;;;;;;;;;5023340;28;20156;-63
2022/10/21 03:16:49;;;;;;;8.48;3.75;;;;;;;;;;5001899;28;20061;-63
2022/10/21 03:19:16;;;;;;;9.88;4.80;;;;;;;;;;4985761;28;20081;-64
2022/10/21 03:21:43;;;;;;;9.30;4.18;;;;;;;;;;4998039;28;20065;-63
2022/10/21 03:24:09;;;;;;;11.63;5.57;;;;;;;;;;5001421;28;20085;-64
2022/10/21 03:26:36;;;;;;;10.05;5.40;;;;;;;;;;5006223;28;20155;-64
2022/10/21 03:29:03;;;;;;;12.73;5.43;;;;;;;;;;5001214;28;20060;-63
2022/10/21 03:31:29;;;;;;;15.55;5.97;;;;;;;;;;5000635;28;20058;-63
2022/10/21 03:33:57;;;;;;;10.80;4.18;;;;;;;;;;5003062;28;20054;-65
2022/10/21 03:36:24;;;;;;;11.15;4.55;;;;;;;;;;5006035;28;20054;-66
2022/10/21 03:38:50;;;;;;;15.45;5.68;;;;;;;;;;5009649;28;20065;-65
2022/10/21 03:41:17;;;;;;;16.08;5.78;;;;;;;;;;5003089;28;20078;-64
2022/10/21 03:43:43;;;;;;;12.18;5.10;;;;;;;;;;4980497;28;20066;-64
2022/10/21 03:46:10;;;;;;;15.98;5.30;;;;;;;;;;5009271;28;20187;-65
2022/10/21 03:48:36;;;;;;;10.88;5.07;;;;;;;;;;5000587;28;20100;-64
2022/10/21 03:51:04;;;;;;;8.20;3.95;;;;;;;;;;5022335;28;20065;-64
2022/10/21 03:53:31;;;;;;;17.58;5.40;;;;;;;;;;5001185;28;20057;-65
2022/10/21 03:55:58;;;;;;;10.73;4.97;;;;;;;;;;5022238;28;20100;-66
2022/10/21 03:58:25;;;;;;;10.32;4.00;;;;;;;;;;5001922;28;20089;-63
2022/10/21 04:00:52;;;;;;;10.25;4.50;;;;;;;;;;4990425;28;20046;-66
2022/10/21 04:03:18;;;;;;;12.20;4.93;;;;;;;;;;4996046;28;20081;-64
2022/10/21 04:05:45;;;;;;;18.42;5.43;;;;;;;;;;4988917;28;20058;-65
2022/10/21 04:08:12;;;;;;;11.15;5.07;;;;;;;;;;5022067;28;20046;-64
2022/10/21 04:10:39;;;;;;;12.57;5.10;;;;;;;;;;5008967;28;20119;-64
2022/10/21 04:13:06;;;;;;;14.88;5.20;;;;;;;;;;5024401;28;20053;-64
2022/10/21 04:15:32;;;;;;;9.98;4.38;;;;;;;;;;5006925;28;20061;-65
2022/10/21 04:17:59;;;;;;;10.60;4.32;;;;;;;;;;4994969;28;20054;-63
2022/10/21 04:20:25;;;;;;;9.70;3.97;;;;;;;;;;5007177;28;20077;-64
2022/10/21 04:22:52;;;;;;;10.30;3.97;;;;;;;;;;5021283;28;20057;-64
2022/10/21 04:25:20;;;;;;;8.82;4.35;;;;;;;;;;5017043;28;20064;-64
2022/10/21 04:27:46;;;;;;;12.63;4.90;;;;;;;;;;5004977;28;20117;-63
2022/10/21 04:30:13;;;;;;;8.82;4.15;;;;;;;;;;5016275;28;20311;-63
2022/10/21 04:32:41;;;;;;;12.32;4.70;;;;;;;;;;5022179;28;20104;-63
2022/10/21 04:35:08;;;;;;;10.60;4.15;;;;;;;;;;5016270;28;20068;-63
2022/10/21 04:37:38;;;;;;;9.20;4.20;;;;;;;;;;5004639;28;20061;-65
2022/10/21 04:40:05;;;;;;;8.80;4.43;;;;;;;;;;4999272;28;20057;-64
2022/10/21 04:42:33;;;;;;;9.52;4.47;;;;;;;;;;5005109;28;20057;-63
2022/10/21 04:45:00;;;;;;;9.65;4.13;;;;;;;;;;5008703;28;20058;-63
2022/10/21 04:47:26;;;;;;;11.43;4.75;;;;;;;;;;4995327;28;20112;-65
2022/10/21 04:49:53;;;;;;;11.07;3.85;;;;;;;;;;4985006;28;20057;-65
2022/10/21 04:52:19;;;;;;;10.98;4.80;;;;;;;;;;4979641;28;20062;-64
2022/10/21 04:54:46;;;;;;;10.77;4.40;;;;;;;;;;5001858;28;20058;-63
2022/10/21 04:57:13;;;;;;;10.40;4.57;;;;;;;;;;4995213;28;20061;-64
2022/10/21 04:59:41;;;;;;;11.38;4.40;;;;;;;;;;4985089;28;20078;-64
2022/10/21 05:02:08;;;;;;;9.23;3.80;;;;;;;;;;4985170;28;20058;-64
2022/10/21 05:04:34;;;;;;;7.15;3.58;;;;;;;;;;4980826;28;20058;-63
2022/10/21 05:07:01;;;;;;;11.30;4.20;;;;;;;;;;4995981;28;20081;-65
2022/10/21 05:09:27;;;;;;;15.32;6.45;;;;;;;;;;4983331;28;20046;-64
2022/10/21 05:11:54;;;;;;;12.52;5.68;;;;;;;;;;5012629;28;20045;-63
2022/10/21 05:14:21;;;;;;;11.18;4.45;;;;;;;;;;5019825;28;20050;-63
2022/10/21 05:16:50;;;;;;;9.82;4.22;;;;;;;;;;5016645;28;20084;-65
2022/10/21 05:19:16;;;;;;;11.48;4.07;;;;;;;;;;5021826;28;20064;-66
2022/10/21 05:21:43;;;;;;;14.80;5.18;;;;;;;;;;5016898;28;20050;-64
2022/10/21 05:24:09;;;;;;;8.48;3.67;;;;;;;;;;5005752;28;20100;-63
2022/10/21 05:26:36;;;;;;;10.30;4.57;;;;;;;;;;5021887;28;20050;-64
2022/10/21 05:29:02;;;;;;;10.88;3.63;;;;;;;;;;5015828;28;20086;-64
2022/10/21 05:31:29;;;;;;;14.15;4.03;;;;;;;;;;5022214;28;20058;-66
2022/10/21 05:33:57;;;;;;;10.35;4.63;;;;;;;;;;4998142;28;20054;-65
2022/10/21 05:36:24;;;;;;;8.52;3.80;;;;;;;;;;5004728;28;20050;-65
2022/10/21 05:38:50;;;;;;;7.57;3.45;;;;;;;;;;5016185;28;20054;-63
2022/10/21 05:41:17;;;;;;;7.50;3.30;;;;;;;;;;5020447;28;20050;-64
2022/10/21 05:43:43;;;;;;;8.50;3.60;;;;;;;;;;5000081;28;20046;-64
2022/10/21 05:46:10;;;;;;;16.02;6.53;;;;;;;;;;5004748;28;20053;-62
2022/10/21 05:48:37;;;;;;;11.80;5.43;;;;;;;;;;5015079;28;20061;-63
2022/10/21 05:51:07;;;;;;;9.65;4.68;;;;;;;;;;5001857;28;20050;-63
2022/10/21 05:53:34;;;;;;;19.05;7.88;;;;;;;;;;4988091;28;20104;-64
2022/10/21 05:56:04;;;;;;;12.50;5.93;;;;;;;;;;4990206;28;20061;-65
2022/10/21 05:58:31;;;;;;;11.43;5.35;;;;;;;;;;4999766;28;20076;-68
2022/10/21 06:00:58;;;;;;;14.00;5.20;;;;;;;;;;5006824;28;20097;-69
2022/10/21 06:03:28;;;;;;;6.35;3.67;;;;;;;;;;4983824;28;20058;-66
2022/10/21 06:05:55;;;;;;;8.63;4.22;;;;;;;;;;4978085;28;20057;-64
2022/10/21 06:08:24;;;;;;;8.50;3.85;;;;;;;;;;5012341;28;20069;-66
2022/10/21 06:10:59;;;;;;;9.88;4.32;;;;;;;;;;4988536;28;20054;-66
2022/10/21 06:13:26;;;;;;;8.63;3.80;;;;;;;;;;4996116;28;20052;-64
2022/10/21 06:15:53;;;;;;;9.30;3.70;;;;;;;;;;5005361;28;20084;-67
2022/10/21 06:18:20;;;;;;;13.60;4.70;;;;;;;;;;5010927;28;20054;-66
2022/10/21 06:20:46;;;;;;;11.32;4.72;;;;;;;;;;5005373;28;20050;-63
2022/10/21 06:23:15;;;;;;;7.57;3.50;;;;;;;;;;5010498;28;20058;-66
2022/10/21 06:25:43;;;;;;;8.45;3.88;;;;;;;;;;4997715;28;20092;-66
2022/10/21 06:28:09;;;;;;;8.18;3.53;;;;;;;;;;4989752;28;20057;-67
2022/10/21 06:30:36;;;;;;;11.52;3.90;;;;;;;;;;4984783;28;20112;-64
2022/10/21 06:33:02;;;;;;;7.20;3.15;;;;;;;;;;5014170;28;20120;-65
2022/10/21 06:35:29;;;;;;;7.28;3.20;;;;;;;;;;5020762;28;20061;-65
2022/10/21 06:37:56;;;;;;;13.02;4.18;;;;;;;;;;5026603;28;20141;-67
2022/10/21 06:40:23;;;;;;;7.95;3.65;;;;;;;;;;5021367;28;20050;-66
2022/10/21 06:42:51;;;;;;;7.68;3.50;;;;;;;;;;5017558;28;20050;-66
2022/10/21 06:45:18;;;;;;;8.15;3.90;;;;;;;;;;4984888;28;20134;-63
2022/10/21 06:47:44;;;;;;;9.90;3.80;;;;;;;;;;5005736;28;20058;-66
2022/10/21 06:50:12;;;;;;;15.55;4.40;;;;;;;;;;5001060;28;20062;-64
2022/10/21 06:52:39;;;;;;;59.35;5.13;;;;;;;;;;5007167;28;20054;-63
2022/10/21 06:55:06;;;;;;;12.88;4.57;;;;;;;;;;4990749;28;20140;-64
2022/10/21 06:57:32;;;;;;;7.43;3.25;;;;;;;;;;5010699;28;20137;-67
2022/10/21 07:00:01;;;;;;;11.25;3.90;;;;;;;;;;4999173;28;20065;-64
2022/10/21 07:02:27;;;;;;;9.23;3.60;;;;;;;;;;5012711;28;20058;-67
2022/10/21 07:04:56;;;;;;;8.23;3.65;;;;;;;;;;5009968;28;20061;-65
2022/10/21 07:07:24;;;;;;;12.25;4.65;;;;;;;;;;5004852;28;20050;-65
2022/10/21 07:09:51;;;;;;;9.75;4.07;;;;;;;;;;5026562;28;20054;-66
2022/10/21 07:12:18;;;;;;;8.70;3.63;;;;;;;;;;5004544;28;20057;-68
2022/10/21 07:14:44;;;;;;;10.15;4.55;;;;;;;;;;5026151;28;20042;-64
2022/10/21 07:17:13;;;;;;;7.03;3.40;;;;;;;;;;5021187;28;20054;-63
2022/10/21 07:19:39;;;;;;;7.70;3.00;;;;;;;;;;5008920;28;20058;-63
2022/10/21 07:22:06;;;;;;;8.13;3.40;;;;;;;;;;5004770;28;20057;-64
2022/10/21 07:24:32;;;;;;;9.82;3.92;;;;;;;;;;5025663;28;20054;-66
2022/10/21 07:27:15;;;;;;;10.18;4.05;;;;;;;;;;5021118;28;20053;-64
2022/10/21 07:29:42;;;;;;;6.32;2.95;;;;;;;;;;5026368;28;20050;-67
2022/10/21 07:32:09;;;;;;;8.88;3.55;;;;;;;;;;5021695;28;20050;-63
2022/10/21 07:34:37;;;;;;;8.77;3.15;;;;;;;;;;5026568;28;20050;-64
2022/10/21 07:37:14;;;;;;;13.50;3.65;;;;;;;;;;5004421;28;20062;-64
2022/10/21 07:39:40;;;;;;;7.90;3.25;;;;;;;;;;5009374;28;20129;-63
2022/10/21 07:42:08;;;;;;;7.13;2.53;;;;;;;;;;5022302;28;20057;-64
2022/10/21 07:44:35;;;;;;;6.93;3.50;;;;;;;;;;5026246;28;20060;-64
2022/10/21 07:47:01;;;;;;;9.43;3.20;;;;;;;;;;4987821;28;20141;-63
2022/10/21 07:49:28;;;;;;;8.68;3.40;;;;;;;;;;5001078;28;20055;-63
2022/10/21 07:51:56;;;;;;;6.20;2.90;;;;;;;;;;4989987;28;20058;-64
2022/10/21 07:54:23;;;;;;;13.93;3.80;;;;;;;;;;4984702;28;20038;-63
2022/10/21 07:56:50;;;;;;;5.82;3.03;;;;;;;;;;4989423;28;20046;-63
2022/10/21 07:59:18;;;;;;;8.57;3.47;;;;;;;;;;5001159;28;20134;-63
2022/10/21 08:01:46;;;;;;;7.78;3.25;;;;;;;;;;4989762;28;20061;-64
2022/10/21 08:04:14;;;;;;;11.93;4.00;;;;;;;;;;4984795;28;20050;-63
2022/10/21 08:06:47;;;;;;;10.63;4.13;;;;;;;;;;5005616;28;20085;-67
2022/10/21 08:09:15;;;;;;;7.45;3.13;;;;;;;;;;5001143;28;20062;-65
2022/10/21 08:11:42;;;;;;;7.47;2.97;;;;;;;;;;4989797;28;20068;-64
2022/10/21 08:14:09;;;;;;;7.68;3.83;;;;;;;;;;4984603;28;20074;-63
2022/10/21 08:16:37;;;;;;;9.10;4.18;;;;;;;;;;4989001;28;20054;-64
2022/10/21 08:19:03;;;;;;;7.25;3.15;;;;;;;;;;4984691;28;20053;-64
2022/10/21 08:21:30;;;;;;;5.30;2.90;;;;;;;;;;5003849;28;20065;-64
2022/10/21 08:23:57;;;;;;;8.57;3.55;;;;;;;;;;4983697;28;20125;-64
2022/10/21 08:26:30;;;;;;;7.22;3.42;;;;;;;;;;5003758;28;20053;-64
2022/10/21 08:28:56;;;;;;;10.88;4.13;;;;;;;;;;4984540;28;20269;-66
2022/10/21 08:31:23;;;;;;;9.77;3.67;;;;;;;;;;5016576;28;20053;-63
2022/10/21 08:33:50;;;;;;;10.40;3.55;;;;;;;;;;5026900;28;20061;-64
2022/10/21 08:36:19;;;;;;;9.55;3.80;;;;;;;;;;5004442;28;20050;-63
2022/10/21 08:38:46;;;;;;;8.93;3.60;;;;;;;;;;5008557;28;20050;-63
2022/10/21 08:41:23;;;;;;;7.15;3.17;;;;;;;;;;4995430;28;20141;-66
2022/10/21 08:43:53;;;;;;;9.90;4.07;;;;;;;;;;5015410;28;20139;-64
2022/10/21 08:46:21;;;;;;;10.02;4.30;;;;;;;;;;5003550;28;20069;-63
2022/10/21 08:48:50;;;;;;;7.97;3.72;;;;;;;;;;5024859;28;20045;-64
2022/10/21 08:51:16;;;;;;;;;;;;;;;;;;5020390;28;20123;-63
2022/10/21 08:53:46;;;;;;;7.60;3.22;;;;;;;;;;5025068;28;19936;-63
2022/10/21 08:56:14;;;;;;;9.63;3.55;;;;;;;;;;5020441;28;20209;-63
2022/10/21 08:58:41;;;;;;;11.47;4.07;;;;;;;;;;5024731;28;20069;-63
2022/10/21 09:01:17;;;;;;;9.52;3.50;;;;;;;;;;5019250;28;20316;-63
2022/10/21 09:03:46;;;;;;;10.57;4.00;;;;;;;;;;5008121;28;20050;-63
2022/10/21 09:06:17;;;;;;;9.05;3.92;;;;;;;;;;5001853;28;20054;-63
2022/10/21 09:08:48;;;;;;;9.57;3.83;;;;;;;;;;5024420;28;20054;-63
2022/10/21 09:11:19;;;;;;;6.40;3.05;;;;;;;;;;5019860;28;20046;-63
2022/10/21 09:13:57;;;;;;;10.30;3.92;;;;;;;;;;5025024;28;20119;-63
2022/10/21 09:16:28;;;;;;;8.25;3.78;;;;;;;;;;5003459;28;20057;-63
2022/10/21 09:19:01;;;;;;;9.60;3.72;;;;;;;;;;5006616;28;20054;-63
2022/10/21 09:21:33;;;;;;;7.18;3.15;;;;;;;;;;5019177;28;20069;-63
2022/10/21 09:24:02;;;;;;;9.77;3.45;;;;;;;;;;5007542;28;20112;-63
2022/10/21 09:26:42;;;;;;;9.57;3.58;;;;;;;;;;5002337;28;20109;-65
2022/10/21 09:29:18;;;;;;;9.20;3.72;;;;;;;;;;5005509;28;20112;-63
2022/10/21 09:31:46;;;;;;;8.38;3.15;;;;;;;;;;5008636;28;20059;-64
2022/10/21 09:34:16;;;;;;;9.20;3.70;;;;;;;;;;4966944;28;20097;-66
2022/10/21 09:36:48;;;;;;;8.77;3.42;;;;;;;;;;4965380;28;20105;-64
2022/10/21 09:39:16;;;;;;;11.65;4.53;;;;;;;;;;4997012;28;20061;-64
2022/10/21 09:41:44;;;;;;;10.95;3.95;;;;;;;;;;5021285;28;20061;-65
2022/10/21 09:44:14;;;;;;;7.90;3.90;;;;;;;;;;4997258;28;20046;-66
2022/10/21 09:46:40;;;;;;;11.75;3.97;;;;;;;;;;5014125;28;20046;-65
2022/10/21 09:49:16;;;;;;;11.60;4.22;;;;;;;;;;5019785;28;20151;-63
2022/10/21 09:51:44;;;;;;;11.70;4.45;;;;;;;;;;5008481;28;20050;-64
2022/10/21 09:54:13;;;;;;;8.88;4.18;;;;;;;;;;5002804;28;20052;-64
2022/10/21 09:56:43;;;;;;;9.52;4.47;;;;;;;;;;5008628;28;20049;-64
2022/10/21 09:59:11;;;;;;;11.43;4.25;;;;;;;;;;5018926;28;20054;-63
2022/10/21 10:01:38;;;;;;;9.35;3.42;;;;;;;;;;5010371;28;20081;-63
2022/10/21 10:04:13;;;;;;;12.32;4.80;;;;;;;;;;5022654;28;20054;-63
2022/10/21 10:06:49;;;;;;;9.57;4.28;;;;;;;;;;5010958;28;20046;-63
2022/10/21 10:09:17;;;;;;;9.68;4.22;;;;;;;;;;5022760;28;20080;-63
2022/10/21 10:11:52;;;;;;;9.02;4.15;;;;;;;;;;5026463;28;20058;-63
2022/10/21 10:14:24;;;;;;;9.98;3.80;;;;;;;;;;5006158;28;20050;-62
2022/10/21 10:16:54;;;;;;;7.43;3.55;;;;;;;;;;5011515;28;20057;-63
2022/10/21 10:19:23;;;;;;;8.82;3.92;;;;;;;;;;5021207;28;20042;-64
2022/10/21 10:22:04;;;;;;;7.85;3.28;;;;;;;;;;5027225;28;20064;-64
2022/10/21 10:24:32;;;;;;;7.32;3.13;;;;;;;;;;5005654;28;20053;-63
2022/10/21 10:27:03;;;;;;;11.25;3.22;;;;;;;;;;5027187;28;20053;-63
2022/10/21 10:29:29;;;;;;;6.35;3.10;;;;;;;;;;5009765;28;20081;-63
2022/10/21 10:31:59;;;;;;;7.05;3.22;;;;;;;;;;5047162;28;20050;-63
2022/10/21 10:34:29;;;;;;;9.70;4.07;;;;;;;;;;5019866;28;20054;-63
2022/10/21 10:37:03;;;;;;;9.45;4.15;;;;;;;;;;5027453;28;20057;-64
2022/10/21 10:39:31;;;;;;;9.95;3.92;;;;;;;;;;5005945;28;20113;-65
2022/10/21 10:41:58;;;;;;;;;;;;;;;;;;5027578;28;20077;-64
2022/10/21 10:44:27;;;;;;;9.43;3.58;;;;;;;;;;5021882;28;19921;-64
2022/10/21 10:46:54;;;;;;;10.02;3.90;;;;;;;;;;5026029;28;20046;-63
2022/10/21 10:49:21;;;;;;;9.52;3.67;;;;;;;;;;5023891;28;20058;-63
2022/10/21 10:52:03;;;;;;;10.57;3.10;;;;;;;;;;5025817;28;20100;-65
2022/10/21 10:54:30;;;;;;;10.32;3.60;;;;;;;;;;5008226;28;20054;-64
2022/10/21 10:57:11;;;;;;;8.18;3.80;;;;;;;;;;5023711;28;20050;-64
2022/10/21 10:59:40;;;;;;;10.02;3.80;;;;;;;;;;5010662;28;20053;-64
2022/10/21 11:02:22;;;;;;;9.95;4.25;;;;;;;;;;5021427;28;20044;-64
2022/10/21 11:04:55;;;;;;;8.30;3.85;;;;;;;;;;5010788;28;20057;-64
2022/10/21 11:07:33;;;;;;;7.50;3.72;;;;;;;;;;5007623;28;20056;-64
2022/10/21 11:10:02;;;;;;;8.27;3.65;;;;;;;;;;4990775;28;20050;-63
2022/10/21 11:12:29;;;;;;;6.90;3.17;;;;;;;;;;4999821;28;20062;-64
2022/10/21 11:14:57;;;;;;;17.90;3.90;;;;;;;;;;5010146;28;20054;-65
2022/10/21 11:17:32;;;;;;;10.23;4.00;;;;;;;;;;5004930;28;20038;-64
2022/10/21 11:20:00;;;;;;;11.05;3.35;;;;;;;;;;5010132;28;20054;-64
2022/10/21 11:22:35;;;;;;;12.25;3.75;;;;;;;;;;5003163;28;20124;-64
2022/10/21 11:25:08;;;;;;;8.02;3.55;;;;;;;;;;5026325;28;20065;-64
2022/10/21 11:27:42;;;;;;;11.80;3.72;;;;;;;;;;5004366;28;20057;-63
2022/10/21 11:30:12;;;;;;;7.78;3.58;;;;;;;;;;5003887;28;20054;-63
2022/10/21 11:32:44;;;;;;;8.63;3.03;;;;;;;;;;4991782;28;20050;-64
2022/10/21 11:35:23;;;;;;;10.48;2.92;;;;;;;;;;5002061;28;20051;-64
2022/10/21 11:37:56;;;;;;;11.82;3.58;;;;;;;;;;5011144;28;20057;-64
2022/10/21 11:40:26;;;;;;;9.27;3.85;;;;;;;;;;5025915;28;20060;-64
2022/10/21 11:42:54;;;;;;;15.43;3.65;;;;;;;;;;5004065;28;20081;-63
2022/10/21 11:45:29;;;;;;;11.45;3.70;;;;;;;;;;5026199;28;20184;-63
2022/10/21 11:47:59;;;;;;;8.63;4.07;;;;;;;;;;4992360;28;20050;-63
2022/10/21 11:50:31;;;;;;;10.10;4.20;;;;;;;;;;4998946;28;20054;-63
2022/10/21 11:53:11;;;;;;;7.88;3.95;;;;;;;;;;5000245;28;20057;-64
2022/10/21 11:55:39;;;;;;;11.98;3.72;;;;;;;;;;4992422;28;20097;-64
2022/10/21 11:58:18;;;;;;;7.35;3.28;;;;;;;;;;5018671;28;20046;-64
2022/10/21 12:00:48;;;;;;;7.78;3.08;;;;;;;;;;5009578;28;20060;-65
2022/10/21 12:03:25;;;;;;;11.90;4.15;;;;;;;;;;5019055;28;20057;-63
2022/10/21 12:06:17;;;;;;;9.25;3.40;;;;;;;;;;5025931;28;20050;-64
2022/10/21 12:08:48;;;;;;;9.68;3.95;;;;;;;;;;5004587;28;20057;-63
2022/10/21 12:11:16;;;;;;;11.52;4.43;;;;;;;;;;5009362;28;20054;-63
2022/10/21 12:13:45;;;;;;;9.80;3.83;;;;;;;;;;5004423;28;20049;-64
2022/10/21 12:16:20;;;;;;;13.65;4.57;;;;;;;;;;5009510;28;20073;-63
2022/10/21 12:18:50;;;;;;;8.82;3.08;;;;;;;;;;5004472;28;20053;-63
2022/10/21 12:21:18;;;;;;;13.57;4.03;;;;;;;;;;5025694;28;20057;-63
2022/10/21 12:23:48;;;;;;;11.13;3.97;;;;;;;;;;5020394;28;20156;-63
2022/10/21 12:26:18;;;;;;;12.23;3.55;;;;;;;;;;5008115;28;20336;-63
2022/10/21 12:28:48;;;;;;;7.72;3.42;;;;;;;;;;5020708;28;20076;-63
2022/10/21 12:31:26;;;;;;;13.18;3.17;;;;;;;;;;4997468;28;20054;-64
2022/10/21 12:33:52;;;;;;;8.68;3.42;;;;;;;;;;4976431;28;20218;-64
2022/10/21 12:36:39;;;;;;;17.00;4.15;;;;;;;;;;5002250;28;20057;-64
2022/10/21 12:39:11;;;;;;;8.90;3.65;;;;;;;;;;5003115;28;20049;-64
2022/10/21 12:41:38;;;;;;;7.32;3.15;;;;;;;;;;5025255;28;20057;-63
2022/10/21 12:44:07;;;;;;;11.40;3.20;;;;;;;;;;5019915;28;20050;-64
2022/10/21 12:46:36;;;;;;;6.85;3.05;;;;;;;;;;5008188;28;20050;-63
2022/10/21 12:49:04;;;;;;;7.28;3.15;;;;;;;;;;4985124;28;20050;-63
2022/10/21 12:51:32;;;;;;;7.50;3.22;;;;;;;;;;4988430;28;20106;-64
2022/10/21 12:54:05;;;;;;;8.40;3.47;;;;;;;;;;4986367;28;20061;-64
2022/10/21 12:56:35;;;;;;;9.07;3.08;;;;;;;;;;4981054;28;20051;-63
2022/10/21 12:59:05;;;;;;;7.78;3.00;;;;;;;;;;4988669;28;20099;-64
2022/10/21 13:01:41;;;;;;;7.43;2.40;;;;;;;;;;4999073;28;20057;-64
2022/10/21 13:04:22;;;;;;;7.50;2.65;;;;;;;;;;5004749;28;20123;-64
2022/10/21 13:06:54;;;;;;;11.02;3.35;;;;;;;;;;4998767;28;20060;-64
2022/10/21 13:09:31;;;;;;;15.75;3.83;;;;;;;;;;5004776;28;20054;-63
2022/10/21 13:12:04;;;;;;;7.75;2.78;;;;;;;;;;4999847;28;20057;-64
2022/10/21 13:14:39;;;;;;;9.05;2.65;;;;;;;;;;5004545;28;20069;-64
2022/10/21 13:17:29;;;;;;;7.63;2.08;;;;;;;;;;4999471;28;20059;-64
2022/10/21 13:19:56;;;;;;;7.68;2.70;;;;;;;;;;4988292;28;20135;-64
2022/10/21 13:22:33;;;;;;;6.20;2.63;;;;;;;;;;4983313;28;20054;-64
2022/10/21 13:25:09;;;;;;;5.78;2.58;;;;;;;;;;5005021;28;20065;-66
2022/10/21 13:27:38;;;;;;;7.18;2.00;;;;;;;;;;4996867;28;20065;-64
2022/10/21 13:30:07;;;;;;;4.15;1.75;;;;;;;;;;5021618;28;20056;-64
2022/10/21 13:32:34;;;;;;;8.05;2.50;;;;;;;;;;4984345;28;20047;-64
2022/10/21 13:35:22;;;;;;;6.18;2.10;;;;;;;;;;4969002;28;20050;-64
2022/10/21 13:37:55;;;;;;;3.78;1.88;;;;;;;;;;5003193;28;20054;-63
2022/10/21 13:40:23;;;;;;;4.20;1.73;;;;;;;;;;5028816;28;20054;-64
2022/10/21 13:42:55;;;;;;;4.85;1.73;;;;;;;;;;5023555;28;20053;-63
2022/10/21 13:45:25;;;;;;;3.92;2.00;;;;;;;;;;5012161;28;20107;-64
2022/10/21 13:47:59;;;;;;;10.18;2.15;;;;;;;;;;5023343;28;20045;-64
2022/10/21 13:50:27;;;;;;;5.00;2.03;;;;;;;;;;5011654;28;20049;-64
2022/10/21 13:52:53;;;;;;;6.28;1.75;;;;;;;;;;5007304;28;20058;-64
2022/10/21 13:55:22;;;;;;;4.90;1.70;;;;;;;;;;5011618;28;20049;-64
2022/10/21 13:57:49;;;;;;;6.28;1.90;;;;;;;;;;5023517;28;20077;-64
2022/10/21 14:00:21;;;;;;;4.35;1.40;;;;;;;;;;5027795;28;20050;-64
2022/10/21 14:02:48;;;;;;;3.13;1.30;;;;;;;;;;5006948;28;20060;-64
2022/10/21 14:05:28;;;;;;;3.92;1.50;;;;;;;;;;5027334;28;20046;-64
2022/10/21 14:07:56;;;;;;;2.97;1.13;;;;;;;;;;5022696;28;20042;-64
2022/10/21 14:10:22;;;;;;;3.40;1.42;;;;;;;;;;5027592;28;20049;-64
2022/10/21 14:12:49;;;;;;;2.10;1.13;;;;;;;;;;5022905;28;20054;-64
2022/10/21 14:15:18;;;;;;;4.18;1.45;;;;;;;;;;5027504;28;20056;-64
2022/10/21 14:17:50;;;;;;;4.57;1.15;;;;;;;;;;5006190;28;20141;-64
2022/10/21 14:20:23;;;;;;;3.00;1.20;;;;;;;;;;5011986;28;20049;-64
2022/10/21 14:22:50;;;;;;;3.75;1.30;;;;;;;;;;4988762;28;20137;-64
2022/10/21 14:25:17;;;;;;;7.35;1.52;;;;;;;;;;5011223;28;20061;-64
2022/10/21 14:27:46;;;;;;;4.13;1.60;;;;;;;;;;5010364;28;20112;-64
2022/10/21 14:30:17;;;;;;;5.97;1.65;;;;;;;;;;5022407;28;20057;-64
2022/10/21 14:32:45;;;;;;;3.38;2.05;;;;;;;;;;5006589;28;20113;-64
2022/10/21 14:35:24;;;;;;;3.80;1.60;;;;;;;;;;4985097;28;20054;-64
2022/10/21 14:37:54;;;;;;;5.78;1.80;;;;;;;;;;4990196;28;20062;-64
2022/10/21 14:40:25;;;;;;;5.97;2.22;;;;;;;;;;5002191;28;20160;-63
2022/10/21 14:42:52;;;;;;;5.95;1.83;;;;;;;;;;5027699;28;20056;-64
2022/10/21 14:45:21;;;;;;;17.92;1.83;;;;;;;;;;5021669;28;20058;-64
2022/10/21 14:47:49;;;;;;;6.60;1.90;;;;;;;;;;5025334;28;20137;-64
2022/10/21 14:50:18;;;;;;;6.40;2.00;;;;;;;;;;5005630;28;20077;-64